sensor_id;sensor_type;location;lat;lon;timestamp;pressure;altitude;pressure_sealevel;temperature;humidity
14067;BME280;7108;42.684;23.350;2023-09-19T00:00:42;95706.88;;;18.42;100.00
14067;BME280;7108;42.684;23.350;2023-09-19T00:03:09;95722.06;;;18.42;100.00
14067;BME280;7108;42.684;23.350;2023-09-19T00:05:36;95723.59;;;18.43;100.00
14067;BME280;7108;42.684;23.350;2023-09-19T00:08:02;95722.03;;;18.46;100.00
14067;BME280;7108;42.684;23.350;2023-09-19T00:10:32;95712.72;;;18.40;100.00
14067;BME280;7108;42.684;23.350;2023-09-19T00:13:00;95718.53;;;18.49;100.00
14067;BME280;7108;42.684;23.350;2023-09-19T00:15:35;95707.19;;;18.54;100.00
14067;BME280;7108;42.684;23.350;2023-09-19T00:18:01;95713.44;;;18.54;100.00
14067;BME280;7108;42.684;23.350;2023-09-19T00:20:27;95709.94;;;18.54;100.00
14067;BME280;7108;42.684;23.350;2023-09-19T00:22:54;95701.75;;;18.47;100.00
14067;BME280;7108;42.684;23.350;2023-09-19T00:25:20;95703.72;;;18.53;100.00
14067;BME280;7108;42.684;23.350;2023-09-19T00:27:46;95714.16;;;18.65;100.00
14067;BME280;7108;42.684;23.350;2023-09-19T00:30:13;95708.72;;;18.65;100.00
14067;BME280;7108;42.684;23.350;2023-09-19T00:32:48;95711.81;;;18.71;100.00
14067;BME280;7108;42.684;23.350;2023-09-19T00:35:17;95709.88;;;18.68;100.00
14067;BME280;7108;42.684;23.350;2023-09-19T00:37:42;95683.81;;;18.53;100.00
14067;BME280;7108;42.684;23.350;2023-09-19T00:40:10;95709.09;;;18.71;100.00
14067;BME280;7108;42.684;23.350;2023-09-19T00:42:46;95688.09;;;18.54;100.00
14067;BME280;7108;42.684;23.350;2023-09-19T00:45:13;95679.94;;;18.47;100.00
14067;BME280;7108;42.684;23.350;2023-09-19T00:47:41;95677.59;;;18.42;100.00
14067;BME280;7108;42.684;23.350;2023-09-19T00:50:08;95679.94;;;18.43;100.00
14067;BME280;7108;42.684;23.350;2023-09-19T00:52:34;95690.84;;;18.43;100.00
14067;BME280;7108;42.684;23.350;2023-09-19T00:55:05;95669.53;;;18.04;100.00
14067;BME280;7108;42.684;23.350;2023-09-19T00:57:32;95689.00;;;18.20;100.00
14067;BME280;7108;42.684;23.350;2023-09-19T00:59:58;95665.22;;;18.17;100.00
14067;BME280;7108;42.684;23.350;2023-09-19T01:02:25;95695.56;;;18.40;100.00
14067;BME280;7108;42.684;23.350;2023-09-19T01:04:54;95699.09;;;18.37;100.00
14067;BME280;7108;42.684;23.350;2023-09-19T01:07:19;95694.38;;;18.41;100.00
14067;BME280;7108;42.684;23.350;2023-09-19T01:09:45;95699.44;;;18.45;100.00
14067;BME280;7108;42.684;23.350;2023-09-19T01:12:12;95706.84;;;18.45;100.00
14067;BME280;7108;42.684;23.350;2023-09-19T01:25:54;95707.19;;;18.57;100.00
14067;BME280;7108;42.684;23.350;2023-09-19T01:31:21;95711.09;;;18.56;100.00
14067;BME280;7108;42.684;23.350;2023-09-19T01:33:56;95691.25;;;18.45;100.00
14067;BME280;7108;42.684;23.350;2023-09-19T01:36:33;95695.16;;;18.41;100.00
14067;BME280;7108;42.684;23.350;2023-09-19T01:39:21;95677.69;;;18.28;100.00
14067;BME280;7108;42.684;23.350;2023-09-19T01:41:56;95691.66;;;18.37;100.00
14067;BME280;7108;42.684;23.350;2023-09-19T01:44:54;95679.25;;;18.19;100.00
14067;BME280;7108;42.684;23.350;2023-09-19T01:47:32;95694.84;;;18.25;100.00
14067;BME280;7108;42.684;23.350;2023-09-19T01:50:13;95682.75;;;18.12;100.00
14067;BME280;7108;42.684;23.350;2023-09-19T01:52:48;95694.84;;;18.18;100.00
14067;BME280;7108;42.684;23.350;2023-09-19T01:55:17;95694.47;;;18.06;100.00
14067;BME280;7108;42.684;23.350;2023-09-19T01:57:52;95684.78;;;17.87;100.00
14067;BME280;7108;42.684;23.350;2023-09-19T02:00:21;95694.50;;;17.88;100.00
14067;BME280;7108;42.684;23.350;2023-09-19T02:02:49;95697.22;;;17.78;100.00
14067;BME280;7108;42.684;23.350;2023-09-19T02:05:22;95706.97;;;17.79;100.00
14067;BME280;7108;42.684;23.350;2023-09-19T02:07:49;95706.56;;;17.77;100.00
14067;BME280;7108;42.684;23.350;2023-09-19T02:10:15;95706.19;;;17.85;100.00
14067;BME280;7108;42.684;23.350;2023-09-19T02:12:42;95710.47;;;17.86;100.00
14067;BME280;7108;42.684;23.350;2023-09-19T02:15:08;95681.69;;;17.68;100.00
14067;BME280;7108;42.684;23.350;2023-09-19T02:17:33;95691.78;;;17.78;100.00
14067;BME280;7108;42.684;23.350;2023-09-19T02:19:59;95671.53;;;17.69;100.00
14067;BME280;7108;42.684;23.350;2023-09-19T02:22:26;95683.59;;;17.71;100.00
14067;BME280;7108;42.684;23.350;2023-09-19T02:24:52;95677.34;;;17.84;100.00
14067;BME280;7108;42.684;23.350;2023-09-19T02:27:19;95680.09;;;17.84;100.00
14067;BME280;7108;42.684;23.350;2023-09-19T02:29:44;95681.63;;;17.96;100.00
14067;BME280;7108;42.684;23.350;2023-09-19T02:32:10;95674.22;;;17.89;100.00
14067;BME280;7108;42.684;23.350;2023-09-19T02:34:36;95682.41;;;17.96;100.00
14067;BME280;7108;42.684;23.350;2023-09-19T02:37:07;95672.25;;;18.00;100.00
14067;BME280;7108;42.684;23.350;2023-09-19T02:39:36;95683.91;;;18.11;100.00
14067;BME280;7108;42.684;23.350;2023-09-19T02:42:01;95666.41;;;18.09;100.00
14067;BME280;7108;42.684;23.350;2023-09-19T02:44:29;95667.94;;;18.17;100.00
14067;BME280;7108;42.684;23.350;2023-09-19T02:46:54;95665.22;;;18.17;100.00
14067;BME280;7108;42.684;23.350;2023-09-19T02:49:20;95662.09;;;18.08;100.00
14067;BME280;7108;42.684;23.350;2023-09-19T02:51:45;95669.50;;;18.14;100.00
14067;BME280;7108;42.684;23.350;2023-09-19T02:54:12;95641.09;;;17.98;100.00
14067;BME280;7108;42.684;23.350;2023-09-19T02:56:38;95650.06;;;17.98;100.00
14067;BME280;7108;42.684;23.350;2023-09-19T02:59:04;95659.03;;;18.02;100.00
14067;BME280;7108;42.684;23.350;2023-09-19T03:01:31;95654.34;;;18.03;100.00
14067;BME280;7108;42.684;23.350;2023-09-19T03:03:57;95647.34;;;17.98;100.00
14067;BME280;7108;42.684;23.350;2023-09-19T03:06:23;95652.00;;;18.01;100.00
14067;BME280;7108;42.684;23.350;2023-09-19T03:08:49;95648.50;;;18.04;100.00
14067;BME280;7108;42.684;23.350;2023-09-19T03:11:17;95636.44;;;17.95;100.00
14067;BME280;7108;42.684;23.350;2023-09-19T03:13:50;95657.06;;;18.10;100.00
14067;BME280;7108;42.684;23.350;2023-09-19T03:16:15;95656.28;;;18.06;100.00
14067;BME280;7108;42.684;23.350;2023-09-19T03:18:41;95629.84;;;17.96;100.00
14067;BME280;7108;42.684;23.350;2023-09-19T03:21:07;95657.47;;;18.05;100.00
14067;BME280;7108;42.684;23.350;2023-09-19T03:23:32;95617.38;;;17.84;100.00
14067;BME280;7108;42.684;23.350;2023-09-19T03:25:58;95623.22;;;17.90;100.00
14067;BME280;7108;42.684;23.350;2023-09-19T03:28:24;95638.78;;;18.00;100.00
14067;BME280;7108;42.684;23.350;2023-09-19T03:30:59;95659.00;;;18.09;100.00
14067;BME280;7108;42.684;23.350;2023-09-19T03:33:25;95641.09;;;18.01;100.00
14067;BME280;7108;42.684;23.350;2023-09-19T03:35:54;95643.81;;;18.01;100.00
14067;BME280;7108;42.684;23.350;2023-09-19T03:38:20;95653.16;;;18.04;100.00
14067;BME280;7108;42.684;23.350;2023-09-19T03:40:47;95647.72;;;18.00;100.00
14067;BME280;7108;42.684;23.350;2023-09-19T03:43:13;95663.31;;;18.00;100.00
14067;BME280;7108;42.684;23.350;2023-09-19T03:45:38;95634.94;;;17.76;100.00
14067;BME280;7108;42.684;23.350;2023-09-19T03:48:12;95664.13;;;17.93;100.00
14067;BME280;7108;42.684;23.350;2023-09-19T03:50:38;95658.28;;;17.88;100.00
14067;BME280;7108;42.684;23.350;2023-09-19T03:53:04;95645.84;;;17.83;100.00
14067;BME280;7108;42.684;23.350;2023-09-19T03:55:30;95662.16;;;17.90;100.00
14067;BME280;7108;42.684;23.350;2023-09-19T03:57:56;95671.09;;;17.94;100.00
14067;BME280;7108;42.684;23.350;2023-09-19T04:00:22;95655.94;;;17.86;100.00
14067;BME280;7108;42.684;23.350;2023-09-19T04:02:51;95662.97;;;17.87;100.00
14067;BME280;7108;42.684;23.350;2023-09-19T04:05:17;95664.53;;;17.88;100.00
14067;BME280;7108;42.684;23.350;2023-09-19T04:07:43;95676.94;;;18.00;100.00
14067;BME280;7108;42.684;23.350;2023-09-19T04:10:08;95657.50;;;17.80;100.00
14067;BME280;7108;42.684;23.350;2023-09-19T04:12:36;95669.97;;;17.88;100.00
14067;BME280;7108;42.684;23.350;2023-09-19T04:15:02;95685.53;;;17.88;100.00
14067;BME280;7108;42.684;23.350;2023-09-19T04:17:28;95678.91;;;17.85;100.00
14067;BME280;7108;42.684;23.350;2023-09-19T04:19:54;95681.25;;;17.87;100.00
14067;BME280;7108;42.684;23.350;2023-09-19T04:22:19;95667.25;;;17.78;100.00
14067;BME280;7108;42.684;23.350;2023-09-19T04:24:46;95690.59;;;17.96;100.00
14067;BME280;7108;42.684;23.350;2023-09-19T04:27:11;95666.09;;;17.86;100.00
14067;BME280;7108;42.684;23.350;2023-09-19T04:29:40;95664.88;;;17.90;100.00
14067;BME280;7108;42.684;23.350;2023-09-19T04:32:07;95684.72;;;18.01;100.00
14067;BME280;7108;42.684;23.350;2023-09-19T04:34:33;95661.78;;;17.88;100.00
14067;BME280;7108;42.684;23.350;2023-09-19T04:36:59;95675.78;;;17.87;100.00
14067;BME280;7108;42.684;23.350;2023-09-19T04:39:26;95668.00;;;17.89;100.00
14067;BME280;7108;42.684;23.350;2023-09-19T04:41:52;95678.13;;;17.99;100.00
14067;BME280;7108;42.684;23.350;2023-09-19T04:44:18;95666.44;;;17.95;100.00
14067;BME280;7108;42.684;23.350;2023-09-19T04:46:44;95683.56;;;17.99;100.00
14067;BME280;7108;42.684;23.350;2023-09-19T04:49:11;95650.50;;;17.79;100.00
14067;BME280;7108;42.684;23.350;2023-09-19T04:51:37;95677.34;;;17.88;100.00
14067;BME280;7108;42.684;23.350;2023-09-19T04:54:03;95669.56;;;17.86;100.00
14067;BME280;7108;42.684;23.350;2023-09-19T04:56:28;95665.69;;;17.84;100.00
14067;BME280;7108;42.684;23.350;2023-09-19T04:58:54;95673.88;;;17.80;100.00
14067;BME280;7108;42.684;23.350;2023-09-19T05:01:20;95659.88;;;17.72;100.00
14067;BME280;7108;42.684;23.350;2023-09-19T05:03:48;95663.38;;;17.65;100.00
14067;BME280;7108;42.684;23.350;2023-09-19T05:06:18;95668.44;;;17.63;100.00
14067;BME280;7108;42.684;23.350;2023-09-19T05:08:43;95661.81;;;17.54;100.00
14067;BME280;7108;42.684;23.350;2023-09-19T05:11:09;95657.53;;;17.35;100.00
14067;BME280;7108;42.684;23.350;2023-09-19T05:13:34;95670.00;;;17.50;100.00
14067;BME280;7108;42.684;23.350;2023-09-19T05:16:00;95662.22;;;17.52;100.00
14067;BME280;7108;42.684;23.350;2023-09-19T05:18:29;95645.88;;;17.56;100.00
14067;BME280;7108;42.684;23.350;2023-09-19T05:20:54;95647.03;;;17.48;100.00
14067;BME280;7108;42.684;23.350;2023-09-19T05:23:20;95664.53;;;17.74;100.00
14067;BME280;7108;42.684;23.350;2023-09-19T05:25:46;95667.97;;;18.03;100.00
14067;BME280;7108;42.684;23.350;2023-09-19T05:28:12;95652.28;;;18.42;100.00
14067;BME280;7108;42.684;23.350;2023-09-19T05:30:40;95655.50;;;18.94;100.00
14067;BME280;7108;42.684;23.350;2023-09-19T05:33:08;95656.72;;;19.44;100.00
14067;BME280;7108;42.684;23.350;2023-09-19T05:35:34;95647.34;;;19.88;100.00
14067;BME280;7108;42.684;23.350;2023-09-19T05:38:02;95638.69;;;20.30;100.00
14067;BME280;7108;42.684;23.350;2023-09-19T05:40:27;95638.75;;;20.86;100.00
14067;BME280;7108;42.684;23.350;2023-09-19T05:42:53;95641.16;;;21.10;100.00
14067;BME280;7108;42.684;23.350;2023-09-19T05:45:18;95625.84;;;20.87;100.00
14067;BME280;7108;42.684;23.350;2023-09-19T05:47:50;95626.16;;;20.62;100.00
14067;BME280;7108;42.684;23.350;2023-09-19T05:50:16;95626.66;;;20.54;100.00
14067;BME280;7108;42.684;23.350;2023-09-19T05:52:43;95638.25;;;20.35;100.00
14067;BME280;7108;42.684;23.350;2023-09-19T05:55:17;95618.56;;;20.14;100.00
14067;BME280;7108;42.684;23.350;2023-09-19T05:57:42;95637.03;;;20.03;100.00
14067;BME280;7108;42.684;23.350;2023-09-19T06:00:08;95623.13;;;19.87;100.00
14067;BME280;7108;42.684;23.350;2023-09-19T06:02:36;95617.34;;;19.78;100.00
14067;BME280;7108;42.684;23.350;2023-09-19T06:05:06;95636.97;;;19.70;100.00
14067;BME280;7108;42.684;23.350;2023-09-19T06:07:35;95613.97;;;19.23;100.00
14067;BME280;7108;42.684;23.350;2023-09-19T06:10:08;95610.41;;;19.26;100.00
14067;BME280;7108;42.684;23.350;2023-09-19T06:12:39;95608.06;;;19.28;100.00
14067;BME280;7108;42.684;23.350;2023-09-19T06:15:05;95626.81;;;19.26;100.00
14067;BME280;7108;42.684;23.350;2023-09-19T06:17:31;95623.31;;;19.26;100.00
14067;BME280;7108;42.684;23.350;2023-09-19T06:19:57;95636.47;;;19.38;100.00
14067;BME280;7108;42.684;23.350;2023-09-19T06:22:22;95600.66;;;19.25;100.00
14067;BME280;7108;42.684;23.350;2023-09-19T06:24:49;95623.94;;;19.40;100.00
14067;BME280;7108;42.684;23.350;2023-09-19T06:27:15;95597.19;;;19.21;100.00
14067;BME280;7108;42.684;23.350;2023-09-19T06:29:40;95606.94;;;19.22;100.00
14067;BME280;7108;42.684;23.350;2023-09-19T06:32:08;95601.13;;;19.13;100.00
14067;BME280;7108;42.684;23.350;2023-09-19T06:34:34;95565.44;;;18.87;100.00
14067;BME280;7108;42.684;23.350;2023-09-19T06:36:59;95621.06;;;19.14;100.00
14067;BME280;7108;42.684;23.350;2023-09-19T06:39:28;95609.47;;;18.93;100.00
14067;BME280;7108;42.684;23.350;2023-09-19T06:41:53;95611.44;;;18.92;100.00
14067;BME280;7108;42.684;23.350;2023-09-19T06:44:19;95593.50;;;18.91;100.00
14067;BME280;7108;42.684;23.350;2023-09-19T06:46:47;95556.19;;;18.71;100.00
14067;BME280;7108;42.684;23.350;2023-09-19T06:49:15;95611.38;;;18.99;100.00
14067;BME280;7108;42.684;23.350;2023-09-19T06:51:40;95623.00;;;19.13;100.00
14067;BME280;7108;42.684;23.350;2023-09-19T06:54:08;95624.22;;;19.02;100.00
14067;BME280;7108;42.684;23.350;2023-09-19T06:56:33;95613.72;;;19.01;100.00
14067;BME280;7108;42.684;23.350;2023-09-19T06:58:59;95609.81;;;19.02;100.00
14067;BME280;7108;42.684;23.350;2023-09-19T07:01:25;95622.22;;;19.13;100.00
14067;BME280;7108;42.684;23.350;2023-09-19T07:03:51;95590.69;;;19.02;100.00
14067;BME280;7108;42.684;23.350;2023-09-19T07:06:18;95633.44;;;19.29;100.00
14067;BME280;7108;42.684;23.350;2023-09-19T07:08:43;95631.81;;;19.38;100.00
14067;BME280;7108;42.684;23.350;2023-09-19T07:11:10;95609.91;;;19.42;100.00
14067;BME280;7108;42.684;23.350;2023-09-19T07:13:37;95616.41;;;19.55;100.00
14067;BME280;7108;42.684;23.350;2023-09-19T07:16:03;95627.31;;;19.58;100.00
14067;BME280;7108;42.684;23.350;2023-09-19T07:18:29;95616.81;;;19.53;100.00
14067;BME280;7108;42.684;23.350;2023-09-19T07:20:58;95628.09;;;19.59;100.00
14067;BME280;7108;42.684;23.350;2023-09-19T07:23:30;95613.03;;;19.37;100.00
14067;BME280;7108;42.684;23.350;2023-09-19T07:26:00;95612.75;;;19.28;100.00
14067;BME280;7108;42.684;23.350;2023-09-19T07:28:26;95637.25;;;19.38;100.00
14067;BME280;7108;42.684;23.350;2023-09-19T07:30:52;95618.91;;;19.35;100.00
14067;BME280;7108;42.684;23.350;2023-09-19T07:33:18;95612.66;;;19.38;100.00
14067;BME280;7108;42.684;23.350;2023-09-19T07:35:47;95627.03;;;19.49;100.00
14067;BME280;7108;42.684;23.350;2023-09-19T07:38:15;95622.28;;;19.53;100.00
14067;BME280;7108;42.684;23.350;2023-09-19T07:40:42;95622.28;;;19.53;100.00
14067;BME280;7108;42.684;23.350;2023-09-19T07:43:09;95623.03;;;19.57;100.00
14067;BME280;7108;42.684;23.350;2023-09-19T07:45:34;95623.75;;;19.61;100.00
14067;BME280;7108;42.684;23.350;2023-09-19T07:48:01;95622.88;;;19.71;100.00
14067;BME280;7108;42.684;23.350;2023-09-19T07:50:30;95636.50;;;19.78;100.00
14067;BME280;7108;42.684;23.350;2023-09-19T07:52:56;95627.13;;;19.79;100.00
14067;BME280;7108;42.684;23.350;2023-09-19T07:55:22;95625.81;;;19.90;100.00
14067;BME280;7108;42.684;23.350;2023-09-19T07:57:54;95640.59;;;20.00;100.00
14067;BME280;7108;42.684;23.350;2023-09-19T08:00:19;95627.34;;;19.98;100.00
14067;BME280;7108;42.684;23.350;2023-09-19T08:02:45;95624.50;;;20.05;100.00
14067;BME280;7108;42.684;23.350;2023-09-19T08:05:12;95624.09;;;20.07;100.00
14067;BME280;7108;42.684;23.350;2023-09-19T08:07:43;95628.72;;;20.13;100.00
14067;BME280;7108;42.684;23.350;2023-09-19T08:10:09;95629.75;;;20.26;100.00
14067;BME280;7108;42.684;23.350;2023-09-19T08:12:45;95614.88;;;20.27;100.00
14067;BME280;7108;42.684;23.350;2023-09-19T08:15:18;95612.38;;;20.40;100.00
14067;BME280;7108;42.684;23.350;2023-09-19T08:17:45;95616.63;;;20.44;100.00
14067;BME280;7108;42.684;23.350;2023-09-19T08:20:11;95608.41;;;20.44;100.00
14067;BME280;7108;42.684;23.350;2023-09-19T08:22:51;95600.28;;;20.37;100.00
14067;BME280;7108;42.684;23.350;2023-09-19T08:25:21;95597.00;;;20.49;100.00
14067;BME280;7108;42.684;23.350;2023-09-19T08:27:48;95587.84;;;20.33;100.00
14067;BME280;7108;42.684;23.350;2023-09-19T08:30:15;95586.41;;;20.21;100.00
14067;BME280;7108;42.684;23.350;2023-09-19T08:32:41;95589.78;;;20.32;100.00
14067;BME280;7108;42.684;23.350;2023-09-19T08:35:08;95608.00;;;20.45;100.00
14067;BME280;7108;42.684;23.350;2023-09-19T08:37:34;95599.81;;;20.42;100.00
14067;BME280;7108;42.684;23.350;2023-09-19T08:40:00;95603.69;;;20.44;100.00
14067;BME280;7108;42.684;23.350;2023-09-19T08:42:25;95607.63;;;20.43;100.00
14067;BME280;7108;42.684;23.350;2023-09-19T08:44:52;95586.59;;;20.37;100.00
14067;BME280;7108;42.684;23.350;2023-09-19T08:47:29;95590.81;;;20.45;100.00
14067;BME280;7108;42.684;23.350;2023-09-19T08:50:11;95603.06;;;20.63;100.00
14067;BME280;7108;42.684;23.350;2023-09-19T08:52:43;95601.41;;;20.69;100.00
14067;BME280;7108;42.684;23.350;2023-09-19T08:55:13;95586.19;;;20.68;100.00
14067;BME280;7108;42.684;23.350;2023-09-19T08:57:45;95575.31;;;20.61;100.00
14067;BME280;7108;42.684;23.350;2023-09-19T09:00:14;95591.56;;;20.75;100.00
14067;BME280;7108;42.684;23.350;2023-09-19T09:02:43;95580.38;;;20.63;100.00
14067;BME280;7108;42.684;23.350;2023-09-19T09:05:09;95576.81;;;20.66;100.00
14067;BME280;7108;42.684;23.350;2023-09-19T09:07:38;95591.22;;;20.73;100.00
14067;BME280;7108;42.684;23.350;2023-09-19T09:10:04;95586.84;;;20.79;100.00
14067;BME280;7108;42.684;23.350;2023-09-19T09:12:30;95553.34;;;20.65;100.00
14067;BME280;7108;42.684;23.350;2023-09-19T09:14:56;95583.56;;;20.88;100.00
14067;BME280;7108;42.684;23.350;2023-09-19T09:17:25;95574.16;;;20.89;100.00
14067;BME280;7108;42.684;23.350;2023-09-19T09:19:54;95565.94;;;20.89;100.00
14067;BME280;7108;42.684;23.350;2023-09-19T09:22:21;95573.94;;;21.03;100.00
14067;BME280;7108;42.684;23.350;2023-09-19T09:24:57;95559.16;;;20.97;100.00
14067;BME280;7108;42.684;23.350;2023-09-19T09:27:24;95544.16;;;21.05;100.00
14067;BME280;7108;42.684;23.350;2023-09-19T09:29:51;95568.47;;;21.25;100.00
14067;BME280;7108;42.684;23.350;2023-09-19T09:32:18;95568.47;;;21.25;100.00
14067;BME280;7108;42.684;23.350;2023-09-19T09:34:46;95553.75;;;21.16;100.00
14067;BME280;7108;42.684;23.350;2023-09-19T09:37:14;95554.47;;;21.20;100.00
14067;BME280;7108;42.684;23.350;2023-09-19T09:39:49;95539.88;;;21.26;100.00
14067;BME280;7108;42.684;23.350;2023-09-19T09:42:36;95515.63;;;21.25;100.00
14067;BME280;7108;42.684;23.350;2023-09-19T09:47:43;95538.31;;;21.48;100.00
14067;BME280;7108;42.684;23.350;2023-09-19T09:50:24;95526.50;;;21.51;100.00
14067;BME280;7108;42.684;23.350;2023-09-19T09:52:55;95530.28;;;21.61;100.00
14067;BME280;7108;42.684;23.350;2023-09-19T09:55:27;95512.31;;;21.56;100.00
14067;BME280;7108;42.684;23.350;2023-09-19T09:58:20;95538.88;;;21.82;100.00
14067;BME280;7108;42.684;23.350;2023-09-19T10:00:56;95529.50;;;21.79;100.00
14067;BME280;7108;42.684;23.350;2023-09-19T10:03:32;95537.81;;;21.95;100.00
14067;BME280;7108;42.684;23.350;2023-09-19T10:06:00;95524.53;;;21.94;100.00
14067;BME280;7108;42.684;23.350;2023-09-19T10:08:34;95531.63;;;21.91;100.00
14067;BME280;7108;42.684;23.350;2023-09-19T10:11:00;95531.13;;;21.96;100.00
14067;BME280;7108;42.684;23.350;2023-09-19T10:13:35;95533.31;;;22.05;100.00
14067;BME280;7108;42.684;23.350;2023-09-19T10:16:06;95535.63;;;22.06;100.00
14067;BME280;7108;42.684;23.350;2023-09-19T10:18:36;95525.41;;;22.07;100.00
14067;BME280;7108;42.684;23.350;2023-09-19T10:21:04;95525.16;;;22.01;100.00
14067;BME280;7108;42.684;23.350;2023-09-19T10:23:32;95524.22;;;22.08;100.00
14067;BME280;7108;42.684;23.350;2023-09-19T10:26:01;95524.84;;;22.15;100.00
14067;BME280;7108;42.684;23.350;2023-09-19T10:28:28;95512.91;;;22.06;100.00
14067;BME280;7108;42.684;23.350;2023-09-19T10:30:56;95508.88;;;22.10;100.00
14067;BME280;7108;42.684;23.350;2023-09-19T10:33:24;95511.06;;;22.19;100.00
14067;BME280;7108;42.684;23.350;2023-09-19T10:35:56;95505.44;;;22.26;100.00
14067;BME280;7108;42.684;23.350;2023-09-19T10:38:26;95508.13;;;22.29;100.00
14067;BME280;7108;42.684;23.350;2023-09-19T10:40:56;95491.69;;;22.26;100.00
14067;BME280;7108;42.684;23.350;2023-09-19T10:43:30;95489.72;;;22.26;100.00
14067;BME280;7108;42.684;23.350;2023-09-19T10:46:01;95479.13;;;22.28;100.00
14067;BME280;7108;42.684;23.350;2023-09-19T10:48:29;95499.28;;;22.38;100.00
14067;BME280;7108;42.684;23.350;2023-09-19T10:53:40;95497.03;;;22.33;100.00
14067;BME280;7108;42.684;23.350;2023-09-19T10:56:08;95492.69;;;22.35;100.00
14067;BME280;7108;42.684;23.350;2023-09-19T10:58:43;95470.94;;;22.25;100.00
14067;BME280;7108;42.684;23.350;2023-09-19T11:01:10;95487.03;;;22.42;100.00
14067;BME280;7108;42.684;23.350;2023-09-19T11:03:40;95493.44;;;22.55;100.00
14067;BME280;7108;42.684;23.350;2023-09-19T11:06:15;95485.19;;;22.55;100.00
14067;BME280;7108;42.684;23.350;2023-09-19T11:09:02;95494.53;;;22.57;100.00
14067;BME280;7108;42.684;23.350;2023-09-19T11:11:48;95475.81;;;22.52;100.00
14067;BME280;7108;42.684;23.350;2023-09-19T11:30:45;95471.78;;;22.73;100.00
14067;BME280;7108;42.684;23.350;2023-09-19T11:33:25;95472.31;;;22.68;100.00
14067;BME280;7108;42.684;23.350;2023-09-19T11:36:13;95459.69;;;22.70;100.00
14067;BME280;7108;42.684;23.350;2023-09-19T11:43:53;95447.84;;;22.89;100.00
14067;BME280;7108;42.684;23.350;2023-09-19T11:46:24;95443.13;;;22.90;100.00
14067;BME280;7108;42.684;23.350;2023-09-19T11:48:51;95392.91;;;22.73;100.00
14067;BME280;7108;42.684;23.350;2023-09-19T11:51:18;95415.63;;;22.90;100.00
14067;BME280;7108;42.684;23.350;2023-09-19T11:53:46;95423.97;;;23.02;100.00
14067;BME280;7108;42.684;23.350;2023-09-19T11:56:22;95423.81;;;23.09;100.00
14067;BME280;7108;42.684;23.350;2023-09-19T11:58:56;95421.06;;;23.09;100.00
14067;BME280;7108;42.684;23.350;2023-09-19T12:03:56;95430.25;;;23.31;100.00
14067;BME280;7108;42.684;23.350;2023-09-19T12:06:26;95402.75;;;23.31;100.00
14067;BME280;7108;42.684;23.350;2023-09-19T12:08:52;95372.38;;;23.22;100.00
14067;BME280;7108;42.684;23.350;2023-09-19T12:11:21;95394.94;;;23.58;100.00
14067;BME280;7108;42.684;23.350;2023-09-19T12:13:48;95394.81;;;23.77;100.00
14067;BME280;7108;42.684;23.350;2023-09-19T12:16:19;95400.66;;;23.91;100.00
14067;BME280;7108;42.684;23.350;2023-09-19T12:18:49;95372.78;;;23.77;100.00
14067;BME280;7108;42.684;23.350;2023-09-19T12:21:33;95363.44;;;23.87;97.51
14067;BME280;7108;42.684;23.350;2023-09-19T12:26:37;95383.28;;;24.19;96.53
14067;BME280;7108;42.684;23.350;2023-09-19T12:29:03;95364.13;;;24.16;96.76
14067;BME280;7108;42.684;23.350;2023-09-19T12:31:30;95357.72;;;24.31;98.00
14067;BME280;7108;42.684;23.350;2023-09-19T12:34:01;95369.75;;;24.49;97.59
14067;BME280;7108;42.684;23.350;2023-09-19T12:36:27;95375.56;;;24.64;95.15
14067;BME280;7108;42.684;23.350;2023-09-19T12:38:56;95360.59;;;24.65;93.72
14067;BME280;7108;42.684;23.350;2023-09-19T12:41:25;95357.03;;;24.64;92.58
14067;BME280;7108;42.684;23.350;2023-09-19T12:43:54;95357.25;;;24.70;93.51
14067;BME280;7108;42.684;23.350;2023-09-19T12:46:21;95362.41;;;24.80;90.12
14067;BME280;7108;42.684;23.350;2023-09-19T12:49:19;95364.41;;;24.80;90.90
14067;BME280;7108;42.684;23.350;2023-09-19T12:51:48;95357.78;;;24.77;89.78
14067;BME280;7108;42.684;23.350;2023-09-19T12:54:14;95362.41;;;24.80;90.75
14067;BME280;7108;42.684;23.350;2023-09-19T12:56:44;95364.84;;;24.78;92.44
14067;BME280;7108;42.684;23.350;2023-09-19T12:59:12;95358.09;;;24.79;90.88
14067;BME280;7108;42.684;23.350;2023-09-19T13:01:39;95364.06;;;24.78;91.52
14067;BME280;7108;42.684;23.350;2023-09-19T13:04:17;95349.63;;;24.74;90.34
14067;BME280;7108;42.684;23.350;2023-09-19T13:06:54;95347.06;;;24.79;91.00
14067;BME280;7108;42.684;23.350;2023-09-19T13:09:26;95337.28;;;24.78;90.58
14067;BME280;7108;42.684;23.350;2023-09-19T13:12:00;95339.16;;;24.81;89.49
14067;BME280;7108;42.684;23.350;2023-09-19T13:14:28;95332.53;;;24.79;91.03
14067;BME280;7108;42.684;23.350;2023-09-19T13:22:36;95336.44;;;24.69;91.36
14067;BME280;7108;42.684;23.350;2023-09-19T13:25:04;95329.72;;;24.70;92.31
14067;BME280;7108;42.684;23.350;2023-09-19T13:27:32;95331.22;;;24.71;94.18
14067;BME280;7108;42.684;23.350;2023-09-19T13:29:58;95312.81;;;24.68;94.21
14067;BME280;7108;42.684;23.350;2023-09-19T13:32:24;95299.63;;;24.63;93.44
14067;BME280;7108;42.684;23.350;2023-09-19T13:34:49;95318.22;;;24.71;94.13
14067;BME280;7108;42.684;23.350;2023-09-19T13:37:16;95305.66;;;24.70;93.48
14067;BME280;7108;42.684;23.350;2023-09-19T13:39:43;95318.13;;;24.75;92.35
14067;BME280;7108;42.684;23.350;2023-09-19T13:42:13;95305.31;;;24.68;92.89
14067;BME280;7108;42.684;23.350;2023-09-19T13:44:39;95312.38;;;24.69;93.54
14067;BME280;7108;42.684;23.350;2023-09-19T13:47:06;95303.91;;;24.64;92.62
14067;BME280;7108;42.684;23.350;2023-09-19T13:49:35;95303.00;;;24.67;92.70